DOL19 KTUS-CYYJ
Flight info
| Callsign | DOL19 |
|---|---|
| Flight time | N/A |
| Altitude | 40000 |
| Route | WLDKT4 BBALL DCT PXR DCT NAVHO DCT AHOWW DCT WINEN DCT IMB DCT JKNOX DCT SEA Q902 ROSLN T487 DISCO DISCO5 |
| Aircraft | B737/M-SDE2E3FGHIRWXY/LB1 |
Departure
| Time | 2026-04-27 00:03 |
|---|---|
| Airport | Tucson International Airport (KTUS) |
Arrival
| Time | N/A |
|---|---|
| Airport | Victoria International Airport (CYYJ) |
| Time | Latitude | Longitude | Altitude | Speed | Heading |
|---|---|---|---|---|---|
| 2026-04-26 23:36 | 32.12253 | -110.94254 | 2579 ft | 0 kts | 163° |
| 2026-04-26 23:50 | 32.12253 | -110.94255 | 2584 ft | 1 kts | 163° |
| 2026-04-26 23:50 | 32.12255 | -110.94255 | 2584 ft | 0 kts | 163° |
| 2026-04-26 23:55 | 32.12254 | -110.94255 | 2584 ft | 1 kts | 164° |
| 2026-04-26 23:55 | 32.12232 | -110.94269 | 2581 ft | 6 kts | 227° |
| 2026-04-26 23:55 | 32.12207 | -110.94332 | 2583 ft | 10 kts | 246° |
| 2026-04-26 23:55 | 32.12152 | -110.94332 | 2582 ft | 10 kts | 133° |
| 2026-04-26 23:56 | 32.12106 | -110.94275 | 2587 ft | 10 kts | 134° |
| 2026-04-26 23:56 | 32.12059 | -110.94220 | 2589 ft | 10 kts | 135° |
| 2026-04-26 23:56 | 32.12003 | -110.94154 | 2585 ft | 13 kts | 135° |
| 2026-04-26 23:56 | 32.11930 | -110.94070 | 2590 ft | 16 kts | 135° |
| 2026-04-26 23:57 | 32.11851 | -110.93976 | 2593 ft | 17 kts | 134° |
| 2026-04-26 23:57 | 32.11763 | -110.93872 | 2594 ft | 19 kts | 135° |
| 2026-04-26 23:57 | 32.11669 | -110.93764 | 2599 ft | 19 kts | 135° |
| 2026-04-26 23:57 | 32.11578 | -110.93656 | 2603 ft | 18 kts | 135° |
| 2026-04-26 23:58 | 32.11489 | -110.93551 | 2608 ft | 18 kts | 135° |
| 2026-04-26 23:58 | 32.11405 | -110.93453 | 2614 ft | 17 kts | 135° |
| 2026-04-26 23:58 | 32.11319 | -110.93353 | 2616 ft | 18 kts | 135° |
| 2026-04-26 23:58 | 32.11233 | -110.93253 | 2619 ft | 17 kts | 135° |
| 2026-04-26 23:59 | 32.11146 | -110.93150 | 2619 ft | 19 kts | 134° |
| 2026-04-26 23:59 | 32.11052 | -110.93037 | 2622 ft | 19 kts | 134° |
| 2026-04-26 23:59 | 32.10960 | -110.92927 | 2625 ft | 19 kts | 135° |
| 2026-04-26 23:59 | 32.10869 | -110.92823 | 2629 ft | 18 kts | 136° |
| 2026-04-27 00:00 | 32.10782 | -110.92721 | 2635 ft | 17 kts | 135° |
| 2026-04-27 00:00 | 32.10698 | -110.92622 | 2638 ft | 17 kts | 135° |
| 2026-04-27 00:00 | 32.10617 | -110.92528 | 2644 ft | 16 kts | 135° |
| 2026-04-27 00:00 | 32.10539 | -110.92436 | 2646 ft | 16 kts | 135° |
| 2026-04-27 00:01 | 32.10461 | -110.92344 | 2646 ft | 15 kts | 135° |
| 2026-04-27 00:01 | 32.10386 | -110.92256 | 2649 ft | 15 kts | 135° |
| 2026-04-27 00:01 | 32.10330 | -110.92191 | 2650 ft | 9 kts | 137° |
| 2026-04-27 00:01 | 32.10276 | -110.92209 | 2653 ft | 9 kts | 226° |
| 2026-04-27 00:02 | 32.10233 | -110.92262 | 2655 ft | 9 kts | 226° |
| 2026-04-27 00:02 | 32.10219 | -110.92306 | 2651 ft | 6 kts | 293° |
| 2026-04-27 00:02 | 32.10251 | -110.92344 | 2658 ft | 15 kts | 316° |
| 2026-04-27 00:02 | 32.10496 | -110.92632 | 2644 ft | 83 kts | 315° |
| 2026-04-27 00:03 | 32.11047 | -110.93283 | 2622 ft | 138 kts | 315° |
| 2026-04-27 00:03 | 32.11806 | -110.94174 | 2834 ft | 162 kts | 313° |
| 2026-04-27 00:03 | 32.12634 | -110.95216 | 3197 ft | 185 kts | 311° |
| 2026-04-27 00:03 | 32.13540 | -110.96332 | 3817 ft | 195 kts | 313° |
| 2026-04-27 00:04 | 32.14554 | -110.97478 | 4265 ft | 202 kts | 314° |
| 2026-04-27 00:04 | 32.15629 | -110.98672 | 4583 ft | 227 kts | 309° |
| 2026-04-27 00:04 | 32.16784 | -111.00039 | 5067 ft | 245 kts | 310° |
| 2026-04-27 00:04 | 32.18069 | -111.01560 | 5614 ft | 264 kts | 310° |
| 2026-04-27 00:05 | 32.19364 | -111.03085 | 6591 ft | 266 kts | 312° |
| 2026-04-27 00:05 | 32.20690 | -111.04646 | 7477 ft | 273 kts | 311° |
| 2026-04-27 00:05 | 32.22035 | -111.06243 | 8498 ft | 275 kts | 311° |
| 2026-04-27 00:05 | 32.23672 | -111.07520 | 9393 ft | 290 kts | 329° |
| 2026-04-27 00:06 | 32.25524 | -111.08553 | 10304 ft | 298 kts | 330° |
| 2026-04-27 00:06 | 32.27481 | -111.09636 | 10762 ft | 322 kts | 330° |